Time;durP1;ratioP1;P1;durP2;ratioP2;P2;SDS_P1;SDS_P2;PMS_P1;PMS_P2;Temp;Humidity;BMP_temperature;BMP_pressure;BME280_temperature;BME280_humidity;BME280_pressure;Samples;Min_cycle;Max_cycle;Signal;HPM_P1;HPM_P2
2022/04/18 05:08:58;;;;;;;3.72;2.08;;;;;;;;;;4617695;22;20502;-65
2022/04/18 05:11:26;;;;;;;8.45;2.47;;;;;;;;;;5044801;28;20039;-65
2022/04/18 05:13:52;;;;;;;6.22;2.20;;;;;;;;;;5052065;28;20136;-63
2022/04/18 05:16:18;;;;;;;5.47;3.00;;;;;;;;;;5044640;28;20069;-63
2022/04/18 05:18:44;;;;;;;4.38;2.45;;;;;;;;;;5054040;28;20049;-63
2022/04/18 05:21:11;;;;;;;5.93;2.47;;;;;;;;;;5059860;28;20020;-63
2022/04/18 05:23:37;;;;;;;5.50;2.72;;;;;;;;;;5057285;28;20029;-63
2022/04/18 05:26:03;;;;;;;6.45;2.58;;;;;;;;;;5047923;28;20036;-65
2022/04/18 05:28:29;;;;;;;3.65;2.42;;;;;;;;;;5058690;28;20039;-63
2022/04/18 05:30:55;;;;;;;3.78;2.40;;;;;;;;;;5056649;28;20017;-63
2022/04/18 05:33:21;;;;;;;4.05;2.70;;;;;;;;;;5045945;28;20506;-63
2022/04/18 05:35:47;;;;;;;6.80;3.05;;;;;;;;;;5046764;28;20100;-63
2022/04/18 05:38:16;;;;;;;4.35;2.55;;;;;;;;;;5038970;28;20053;-62
2022/04/18 05:40:42;;;;;;;5.88;2.47;;;;;;;;;;5043888;28;20033;-62
2022/04/18 05:43:08;;;;;;;4.13;2.40;;;;;;;;;;5036559;28;20029;-62
2022/04/18 05:45:35;;;;;;;6.03;2.65;;;;;;;;;;5050952;28;20386;-62
2022/04/18 05:48:01;;;;;;;5.75;2.60;;;;;;;;;;5051089;28;20029;-62
2022/04/18 05:50:27;;;;;;;5.50;2.60;;;;;;;;;;5048777;28;20087;-63
2022/04/18 05:52:54;;;;;;;6.00;2.85;;;;;;;;;;5049158;28;20029;-63
2022/04/18 05:55:20;;;;;;;4.35;2.13;;;;;;;;;;5050918;28;20040;-63
2022/04/18 05:57:46;;;;;;;4.47;2.70;;;;;;;;;;5047358;28;20489;-62
2022/04/18 06:00:12;;;;;;;5.93;2.63;;;;;;;;;;5050907;28;20116;-62
2022/04/18 06:02:38;;;;;;;6.40;2.80;;;;;;;;;;5050353;28;20021;-62
2022/04/18 06:05:04;;;;;;;7.05;3.25;;;;;;;;;;5050623;28;20024;-63
2022/04/18 06:07:30;;;;;;;6.70;2.83;;;;;;;;;;5050351;28;20521;-62
2022/04/18 06:09:56;;;;;;;5.45;3.03;;;;;;;;;;5050652;28;20028;-62
2022/04/18 06:12:23;;;;;;;6.45;2.95;;;;;;;;;;5041720;28;20037;-63
2022/04/18 06:14:49;;;;;;;4.53;2.70;;;;;;;;;;5050327;28;20021;-63
2022/04/18 06:17:15;;;;;;;4.25;2.80;;;;;;;;;;5041972;28;20525;-65
2022/04/18 06:19:41;;;;;;;3.30;2.53;;;;;;;;;;5043314;28;20287;-63
2022/04/18 06:22:07;;;;;;;4.97;2.90;;;;;;;;;;5051523;28;20165;-63
2022/04/18 06:24:33;;;;;;;5.18;2.95;;;;;;;;;;5049380;28;20463;-63
2022/04/18 06:26:59;;;;;;;4.68;2.65;;;;;;;;;;5052897;28;20036;-63
2022/04/18 06:29:25;;;;;;;5.25;2.63;;;;;;;;;;5046267;28;20037;-63
2022/04/18 06:31:53;;;;;;;5.85;3.20;;;;;;;;;;5052301;28;20471;-62
2022/04/18 06:34:19;;;;;;;7.72;2.83;;;;;;;;;;5051152;28;20036;-64
2022/04/18 06:36:45;;;;;;;5.50;2.85;;;;;;;;;;5043807;28;20027;-63
2022/04/18 06:39:12;;;;;;;5.63;2.50;;;;;;;;;;5044438;28;20028;-63
2022/04/18 06:41:38;;;;;;;5.47;3.20;;;;;;;;;;5050303;28;20024;-63
2022/04/18 06:44:04;;;;;;;4.60;2.85;;;;;;;;;;5050764;28;20021;-63
2022/04/18 06:46:30;;;;;;;4.15;2.63;;;;;;;;;;5050500;28;20848;-63
2022/04/18 06:48:56;;;;;;;8.43;3.08;;;;;;;;;;5050168;28;20033;-63
2022/04/18 06:51:22;;;;;;;4.70;3.08;;;;;;;;;;5049068;28;20100;-63
2022/04/18 06:53:48;;;;;;;5.60;3.05;;;;;;;;;;5049849;28;20163;-64
2022/04/18 06:59:01;;;;;;;8.77;2.42;;;;;;;;;;5047959;28;20040;-63
2022/04/18 07:01:27;;;;;;;6.93;2.65;;;;;;;;;;5049273;28;20037;-63
2022/04/18 07:03:53;;;;;;;6.63;2.92;;;;;;;;;;5050224;28;20028;-63
2022/04/18 07:06:19;;;;;;;6.70;3.15;;;;;;;;;;5049790;28;20465;-63
2022/04/18 07:08:46;;;;;;;4.43;2.85;;;;;;;;;;5049473;28;20041;-63
2022/04/18 07:11:12;;;;;;;3.40;2.80;;;;;;;;;;5050121;28;20107;-63
2022/04/18 07:13:38;;;;;;;4.47;2.70;;;;;;;;;;5048187;28;20045;-62
2022/04/18 07:16:07;;;;;;;6.70;3.15;;;;;;;;;;5048558;28;20044;-64
2022/04/18 07:18:33;;;;;;;3.65;2.90;;;;;;;;;;5049620;28;20358;-64
2022/04/18 07:20:59;;;;;;;5.07;2.72;;;;;;;;;;5050590;28;20029;-63
2022/04/18 07:23:25;;;;;;;5.63;3.35;;;;;;;;;;5048522;28;20035;-63
2022/04/18 07:25:51;;;;;;;4.57;2.88;;;;;;;;;;5049616;28;20017;-63
2022/04/18 07:28:17;;;;;;;4.32;2.30;;;;;;;;;;5040709;28;20096;-63
2022/04/18 07:30:43;;;;;;;7.70;3.10;;;;;;;;;;5048814;28;20025;-64
2022/04/18 07:33:11;;;;;;;4.78;2.97;;;;;;;;;;5048926;28;20037;-64
2022/04/18 07:35:37;;;;;;;4.03;2.80;;;;;;;;;;5046115;28;20458;-64
2022/04/18 07:40:48;;;;;;;4.70;3.10;;;;;;;;;;5047682;28;20043;-63
2022/04/18 07:43:14;;;;;;;6.82;3.75;;;;;;;;;;5054816;28;20017;-64
2022/04/18 07:45:40;;;;;;;6.05;3.35;;;;;;;;;;5049381;28;20086;-65
2022/04/18 07:48:09;;;;;;;8.90;2.97;;;;;;;;;;5053234;28;20020;-66
2022/04/18 07:53:21;;;;;;;5.43;3.28;;;;;;;;;;5053301;28;20048;-66
2022/04/18 07:55:48;;;;;;;5.72;2.97;;;;;;;;;;5052383;28;20369;-66
2022/04/18 07:58:16;;;;;;;4.82;2.90;;;;;;;;;;5047094;28;20056;-65
2022/04/18 08:00:43;;;;;;;4.70;2.88;;;;;;;;;;5049230;28;20021;-65
2022/04/18 08:03:09;;;;;;;5.38;3.08;;;;;;;;;;5049166;28;20045;-65
2022/04/18 08:05:35;;;;;;;5.85;3.08;;;;;;;;;;5040668;28;20430;-66
2022/04/18 08:08:01;;;;;;;4.38;2.97;;;;;;;;;;5048892;28;20040;-65
2022/04/18 08:10:27;;;;;;;7.75;2.88;;;;;;;;;;5041101;28;20040;-63
2022/04/18 08:12:53;;;;;;;5.53;3.00;;;;;;;;;;5048977;28;20514;-65
2022/04/18 08:15:19;;;;;;;8.63;3.15;;;;;;;;;;5047315;28;20028;-63
2022/04/18 08:17:45;;;;;;;5.45;3.22;;;;;;;;;;5044589;28;20056;-64
2022/04/18 08:20:11;;;;;;;3.72;2.65;;;;;;;;;;5048401;28;20437;-64
2022/04/18 08:22:38;;;;;;;5.80;3.80;;;;;;;;;;5049020;28;20139;-63
2022/04/18 08:25:04;;;;;;;5.80;3.60;;;;;;;;;;5048993;28;20037;-64
2022/04/18 08:27:30;;;;;;;6.07;3.40;;;;;;;;;;5047775;28;20033;-63
2022/04/18 08:29:56;;;;;;;6.00;3.50;;;;;;;;;;5048716;28;20025;-64
2022/04/18 08:32:22;;;;;;;8.23;3.30;;;;;;;;;;5047427;28;20276;-63
2022/04/18 08:34:48;;;;;;;7.90;3.40;;;;;;;;;;5038215;28;20269;-64
2022/04/18 08:37:15;;;;;;;3.75;2.53;;;;;;;;;;5045268;28;20025;-64
2022/04/18 08:39:41;;;;;;;7.03;3.30;;;;;;;;;;5042143;28;20037;-64
2022/04/18 08:42:07;;;;;;;5.70;3.10;;;;;;;;;;5049094;28;20084;-63
2022/04/18 08:44:34;;;;;;;5.53;3.17;;;;;;;;;;5048986;28;20504;-64
2022/04/18 08:47:01;;;;;;;11.23;2.92;;;;;;;;;;5048907;28;20036;-63
2022/04/18 08:54:58;;;;;;;6.63;3.03;;;;;;;;;;5032583;28;20444;-63
2022/04/18 08:57:24;;;;;;;4.72;3.03;;;;;;;;;;5048127;28;20049;-65
2022/04/18 08:59:50;;;;;;;7.78;3.30;;;;;;;;;;5039318;28;20099;-64
2022/04/18 09:02:17;;;;;;;5.45;2.92;;;;;;;;;;5048234;28;20017;-63
2022/04/18 09:04:44;;;;;;;7.18;3.05;;;;;;;;;;5037411;28;20105;-63
2022/04/18 09:07:15;;;;;;;4.13;3.00;;;;;;;;;;5042514;28;20087;-63
2022/04/18 09:09:42;;;;;;;7.05;3.20;;;;;;;;;;5038747;28;20025;-64
2022/04/18 09:12:21;;;;;;;5.88;3.00;;;;;;;;;;5046042;28;20065;-64
2022/04/18 09:14:48;;;;;;;5.68;2.65;;;;;;;;;;5048792;28;20025;-63
2022/04/18 09:17:32;;;;;;;6.10;3.60;;;;;;;;;;5049190;28;20551;-64
2022/04/18 09:20:04;;;;;;;5.93;3.28;;;;;;;;;;5043520;28;20372;-63
2022/04/18 09:22:30;;;;;;;9.23;3.15;;;;;;;;;;5051462;28;20473;-63
2022/04/18 09:24:56;;;;;;;7.78;3.50;;;;;;;;;;5048340;28;20095;-63
2022/04/18 09:27:29;;;;;;;4.75;2.70;;;;;;;;;;5051628;28;20159;-63
2022/04/18 09:30:04;;;;;;;4.28;3.33;;;;;;;;;;5043942;28;20059;-63
2022/04/18 09:32:31;;;;;;;7.10;3.90;;;;;;;;;;5052173;28;20386;-63
2022/04/18 09:35:03;;;;;;;7.95;3.05;;;;;;;;;;5047904;28;20051;-63
2022/04/18 09:37:30;;;;;;;7.00;3.40;;;;;;;;;;5051613;28;20029;-63
2022/04/18 09:39:57;;;;;;;6.35;3.20;;;;;;;;;;5049018;28;20024;-64
2022/04/18 09:42:24;;;;;;;6.95;3.35;;;;;;;;;;5050230;28;20032;-63
2022/04/18 09:44:51;;;;;;;4.40;2.50;;;;;;;;;;5049740;28;20316;-64
2022/04/18 09:47:17;;;;;;;5.63;2.70;;;;;;;;;;5041141;28;20021;-63
2022/04/18 09:49:43;;;;;;;2.08;1.35;;;;;;;;;;5038025;28;20032;-64
2022/04/18 09:52:20;;;;;;;7.45;3.15;;;;;;;;;;5044275;28;20032;-63
2022/04/18 09:54:53;;;;;;;4.47;2.13;;;;;;;;;;5050316;28;20114;-63
2022/04/18 09:57:23;;;;;;;7.00;3.63;;;;;;;;;;5049831;28;20047;-63
2022/04/18 09:59:50;;;;;;;7.10;3.05;;;;;;;;;;5034208;28;20033;-64
2022/04/18 10:02:17;;;;;;;5.15;3.10;;;;;;;;;;5042849;28;20037;-64
2022/04/18 10:04:44;;;;;;;5.30;3.03;;;;;;;;;;5048751;28;20481;-64
2022/04/18 10:07:10;;;;;;;5.72;2.78;;;;;;;;;;5044057;28;20026;-63
2022/04/18 10:09:40;;;;;;;4.10;2.58;;;;;;;;;;5047664;28;20433;-63
2022/04/18 10:12:08;;;;;;;3.83;2.57;;;;;;;;;;5046927;28;20039;-63
2022/04/18 10:14:34;;;;;;;4.45;2.60;;;;;;;;;;5047056;28;20049;-63
2022/04/18 10:17:01;;;;;;;5.00;3.38;;;;;;;;;;5046731;28;20434;-63
2022/04/18 10:19:32;;;;;;;3.58;2.63;;;;;;;;;;5047904;28;20025;-64
2022/04/18 10:22:05;;;;;;;4.15;2.15;;;;;;;;;;5043888;28;20482;-63
2022/04/18 10:24:49;;;;;;;5.78;3.25;;;;;;;;;;5039790;28;20087;-63
2022/04/18 10:27:22;;;;;;;6.47;3.70;;;;;;;;;;5049500;28;20036;-64
2022/04/18 10:29:51;;;;;;;5.28;3.00;;;;;;;;;;5049955;28;20430;-63
2022/04/18 10:32:21;;;;;;;9.80;3.13;;;;;;;;;;5050310;28;20044;-63
2022/04/18 10:34:51;;;;;;;3.63;2.70;;;;;;;;;;5050996;28;20474;-64
2022/04/18 10:37:17;;;;;;;4.88;2.65;;;;;;;;;;5050587;28;20025;-64
2022/04/18 10:39:43;;;;;;;6.05;3.35;;;;;;;;;;5044860;28;20447;-64
2022/04/18 10:42:19;;;;;;;6.65;2.92;;;;;;;;;;5048876;28;20116;-64
2022/04/18 10:44:57;;;;;;;5.60;3.17;;;;;;;;;;5050338;28;20150;-63
2022/04/18 10:47:23;;;;;;;6.55;3.33;;;;;;;;;;5050366;28;20035;-63
2022/04/18 10:50:08;;;;;;;4.85;2.33;;;;;;;;;;5049281;28;20076;-64
2022/04/18 10:52:34;;;;;;;5.32;2.60;;;;;;;;;;5047457;28;20032;-63
2022/04/18 10:55:00;;;;;;;1.85;1.30;;;;;;;;;;5055629;28;20060;-64
2022/04/18 10:57:30;;;;;;;4.40;3.05;;;;;;;;;;5048910;28;20025;-63
2022/04/18 10:59:57;;;;;;;5.60;3.08;;;;;;;;;;5049418;28;20024;-64
2022/04/18 11:02:39;;;;;;;3.88;2.70;;;;;;;;;;5047972;28;20025;-64
2022/04/18 11:05:06;;;;;;;2.92;2.45;;;;;;;;;;5050563;28;20029;-64
2022/04/18 11:07:39;;;;;;;3.67;2.30;;;;;;;;;;5041676;28;20088;-65
2022/04/18 11:10:18;;;;;;;5.90;2.63;;;;;;;;;;5042294;28;20379;-64
2022/04/18 11:12:44;;;;;;;4.90;2.03;;;;;;;;;;5051801;28;20025;-63
2022/04/18 11:15:10;;;;;;;6.50;2.60;;;;;;;;;;5048096;28;20110;-64
2022/04/18 11:17:40;;;;;;;5.07;2.78;;;;;;;;;;5048298;28;20029;-64
2022/04/18 11:20:25;;;;;;;4.38;2.38;;;;;;;;;;5050009;28;20025;-64
2022/04/18 11:23:10;;;;;;;5.57;2.63;;;;;;;;;;5049106;28;20025;-64
2022/04/18 11:25:52;;;;;;;4.10;2.90;;;;;;;;;;5048800;28;20021;-64
2022/04/18 11:28:18;;;;;;;5.53;2.85;;;;;;;;;;5049309;28;20033;-64
2022/04/18 11:30:44;;;;;;;5.93;3.00;;;;;;;;;;5048286;28;20481;-64
2022/04/18 11:33:19;;;;;;;5.68;2.90;;;;;;;;;;5038705;28;20516;-63
2022/04/18 11:38:49;;;;;;;4.85;2.88;;;;;;;;;;5050370;28;20088;-64
2022/04/18 11:41:15;;;;;;;4.07;2.70;;;;;;;;;;5049170;28;20420;-64
2022/04/18 11:43:41;;;;;;;5.05;2.60;;;;;;;;;;5048683;28;20372;-63
2022/04/18 11:46:09;;;;;;;4.40;2.80;;;;;;;;;;5045682;28;20470;-64
2022/04/18 11:48:35;;;;;;;3.50;2.20;;;;;;;;;;5047204;28;20025;-64
2022/04/18 11:51:02;;;;;;;4.47;2.90;;;;;;;;;;5048952;28;20025;-64
2022/04/18 11:53:32;;;;;;;5.40;2.63;;;;;;;;;;5047288;28;20422;-64
2022/04/18 11:55:58;;;;;;;6.53;1.90;;;;;;;;;;5048348;28;20037;-64
2022/04/18 11:58:23;;;;;;;4.45;2.53;;;;;;;;;;5047579;28;20286;-64
2022/04/18 12:06:45;;;;;;;4.97;2.58;;;;;;;;;;5046807;28;20102;-63
2022/04/18 12:09:13;;;;;;;4.50;2.47;;;;;;;;;;5048946;28;20040;-64
2022/04/18 12:11:39;;;;;;;5.05;2.80;;;;;;;;;;5044881;28;20071;-64
2022/04/18 12:14:05;;;;;;;5.90;2.22;;;;;;;;;;5048643;28;20041;-64
2022/04/18 12:16:32;;;;;;;6.47;2.53;;;;;;;;;;5046244;28;20462;-64
2022/04/18 12:18:59;;;;;;;5.22;2.65;;;;;;;;;;5048344;28;20025;-64
2022/04/18 12:21:25;;;;;;;5.93;3.13;;;;;;;;;;5047775;28;20086;-64
2022/04/18 12:23:55;;;;;;;4.85;2.80;;;;;;;;;;5048113;28;20032;-64
2022/04/18 12:26:24;;;;;;;4.90;2.97;;;;;;;;;;5044501;28;20032;-65
2022/04/18 12:28:51;;;;;;;6.40;2.80;;;;;;;;;;5047527;28;20061;-64
2022/04/18 12:31:17;;;;;;;5.60;2.13;;;;;;;;;;5044804;28;20029;-64
2022/04/18 12:33:48;;;;;;;6.93;2.75;;;;;;;;;;5038318;28;20071;-64
2022/04/18 12:36:14;;;;;;;;;;;;;;;;;;5047739;28;20475;-64
2022/04/18 12:38:40;;;;;;;4.70;2.40;;;;;;;;;;5040236;28;19916;-64
2022/04/18 12:41:07;;;;;;;7.68;2.70;;;;;;;;;;5046745;28;20033;-64
2022/04/18 12:43:35;;;;;;;3.22;1.92;;;;;;;;;;5048005;28;20033;-64
2022/04/18 12:46:04;;;;;;;3.78;2.25;;;;;;;;;;5049734;28;20025;-65
2022/04/18 12:48:31;;;;;;;4.82;2.80;;;;;;;;;;5051352;28;20032;-64
2022/04/18 12:50:58;;;;;;;3.35;2.05;;;;;;;;;;5048183;28;20059;-64
2022/04/18 12:53:43;;;;;;;4.72;2.22;;;;;;;;;;5047673;28;20037;-64
2022/04/18 12:56:10;;;;;;;4.10;2.38;;;;;;;;;;5051876;28;20493;-64
2022/04/18 12:58:40;;;;;;;5.13;2.45;;;;;;;;;;5046463;28;20177;-64
2022/04/18 13:01:06;;;;;;;5.90;2.57;;;;;;;;;;5051729;28;20413;-64
2022/04/18 13:03:45;;;;;;;6.15;2.88;;;;;;;;;;5053794;28;20610;-64
2022/04/18 13:06:12;;;;;;;3.53;2.50;;;;;;;;;;5048208;28;20096;-63
2022/04/18 13:08:39;;;;;;;4.18;2.45;;;;;;;;;;5053033;28;20033;-64
2022/04/18 13:11:05;;;;;;;4.75;2.90;;;;;;;;;;5053326;28;20017;-64
2022/04/18 13:13:31;;;;;;;8.75;2.85;;;;;;;;;;5074787;22;20068;-63
2022/04/18 13:15:58;;;;;;;3.33;1.98;;;;;;;;;;5044584;28;20047;-63
2022/04/18 13:18:26;;;;;;;4.63;2.75;;;;;;;;;;5050510;28;20041;-64
2022/04/18 13:20:55;;;;;;;4.03;2.40;;;;;;;;;;5050307;28;20429;-63
2022/04/18 13:23:24;;;;;;;5.63;2.60;;;;;;;;;;5055716;28;20496;-63
2022/04/18 13:25:50;;;;;;;6.30;3.35;;;;;;;;;;5050465;28;20519;-63
2022/04/18 13:37:29;;;;;;;3.63;2.25;;;;;;;;;;4973401;28;20041;-63
2022/04/18 13:39:55;;;;;;;4.63;2.92;;;;;;;;;;4969438;28;20030;-74
2022/04/18 13:42:21;;;;;;;3.25;2.35;;;;;;;;;;4964369;28;20042;-74
2022/04/18 13:44:47;;;;;;;3.72;2.20;;;;;;;;;;4969081;28;20034;-74
2022/04/18 13:47:13;;;;;;;5.63;2.60;;;;;;;;;;4967942;28;20114;-74
2022/04/18 13:49:40;;;;;;;7.32;2.53;;;;;;;;;;4969787;28;20031;-74
2022/04/18 13:52:10;;;;;;;5.07;2.70;;;;;;;;;;4962530;28;20066;-74
2022/04/18 13:54:39;;;;;;;3.85;2.40;;;;;;;;;;4970535;28;20451;-74
2022/04/18 13:57:06;;;;;;;5.70;2.60;;;;;;;;;;4968825;28;20114;-74
2022/04/18 13:59:32;;;;;;;4.88;2.08;;;;;;;;;;4968087;28;20114;-74
2022/04/18 14:01:59;;;;;;;3.58;2.35;;;;;;;;;;4968312;28;20043;-73
2022/04/18 14:04:25;;;;;;;3.35;2.33;;;;;;;;;;4969956;28;20022;-73
2022/04/18 14:06:51;;;;;;;4.60;2.45;;;;;;;;;;4951817;28;20335;-73
2022/04/18 14:09:17;;;;;;;4.93;2.40;;;;;;;;;;5039598;28;20389;-73
2022/04/18 14:11:43;;;;;;;3.10;2.28;;;;;;;;;;5051435;28;20078;-73
2022/04/18 14:14:09;;;;;;;6.18;2.40;;;;;;;;;;5049663;28;20044;-73
2022/04/18 14:22:05;;;;;;;2.90;1.98;;;;;;;;;;5038326;28;20052;-72
2022/04/18 14:24:31;;;;;;;6.50;1.80;;;;;;;;;;5042538;28;20363;-73
2022/04/18 14:26:57;;;;;;;4.57;2.20;;;;;;;;;;5031181;28;20020;-75
2022/04/18 14:29:23;;;;;;;3.95;1.70;;;;;;;;;;5049804;28;20033;-74
2022/04/18 14:31:50;;;;;;;6.78;2.10;;;;;;;;;;5050432;28;20456;-74
2022/04/18 14:34:16;;;;;;;3.85;1.90;;;;;;;;;;5049723;28;20024;-74
2022/04/18 14:36:42;;;;;;;4.53;2.20;;;;;;;;;;5050231;28;20470;-74
2022/04/18 14:39:09;;;;;;;5.43;1.70;;;;;;;;;;5034914;28;20017;-74
2022/04/18 14:41:35;;;;;;;5.82;2.25;;;;;;;;;;5050438;28;20079;-74
2022/04/18 14:44:02;;;;;;;3.75;2.10;;;;;;;;;;5049999;28;20055;-74
2022/04/18 14:46:28;;;;;;;5.00;2.20;;;;;;;;;;5042923;28;20025;-74
2022/04/18 14:48:55;;;;;;;5.40;2.00;;;;;;;;;;5049832;28;20049;-75
2022/04/18 14:51:22;;;;;;;5.47;1.65;;;;;;;;;;5050254;28;20104;-74
2022/04/18 14:53:48;;;;;;;2.53;1.85;;;;;;;;;;5048851;28;20040;-74
2022/04/18 14:56:14;;;;;;;5.15;2.05;;;;;;;;;;5047375;28;20025;-75
2022/04/18 14:58:40;;;;;;;5.82;1.88;;;;;;;;;;5050073;28;20108;-75
2022/04/18 15:01:08;;;;;;;2.83;1.52;;;;;;;;;;5041165;28;20104;-75
2022/04/18 15:03:34;;;;;;;2.83;1.65;;;;;;;;;;5043306;28;20036;-74
2022/04/18 15:06:00;;;;;;;3.83;2.00;;;;;;;;;;5048529;28;20458;-71
2022/04/18 15:08:26;;;;;;;3.28;1.80;;;;;;;;;;5048668;28;20033;-74
2022/04/18 15:10:52;;;;;;;4.00;1.73;;;;;;;;;;5049025;28;20101;-74
2022/04/18 15:13:18;;;;;;;2.53;1.60;;;;;;;;;;5044928;28;20041;-73
2022/04/18 15:15:44;;;;;;;3.05;1.80;;;;;;;;;;5046677;28;20489;-72
2022/04/18 15:18:10;;;;;;;2.03;1.42;;;;;;;;;;5049822;28;20021;-73
2022/04/18 15:20:37;;;;;;;2.35;1.60;;;;;;;;;;5050258;28;20386;-73
2022/04/18 15:23:03;;;;;;;2.20;1.20;;;;;;;;;;5049300;28;20086;-75
2022/04/18 15:25:29;;;;;;;4.85;2.13;;;;;;;;;;5049152;28;20493;-73
2022/04/18 15:27:55;;;;;;;2.63;1.65;;;;;;;;;;5051621;28;20028;-74
2022/04/18 15:33:08;;;;;;;4.35;1.77;;;;;;;;;;5050127;28;20588;-75
2022/04/18 15:35:34;;;;;;;3.08;1.45;;;;;;;;;;5044287;28;20076;-75
2022/04/18 15:38:00;;;;;;;2.25;1.60;;;;;;;;;;5037890;28;20381;-75
2022/04/18 15:40:26;;;;;;;6.68;2.15;;;;;;;;;;5044674;28;20489;-75
2022/04/18 15:42:52;;;;;;;5.28;1.60;;;;;;;;;;5043907;28;20326;-74
2022/04/18 15:45:18;;;;;;;1.95;1.45;;;;;;;;;;5046678;28;20025;-74
2022/04/18 15:47:44;;;;;;;3.72;1.45;;;;;;;;;;5041053;28;20025;-74
2022/04/18 15:50:11;;;;;;;2.28;1.48;;;;;;;;;;5050930;28;20066;-73
2022/04/18 15:52:37;;;;;;;3.03;1.45;;;;;;;;;;5045485;28;20379;-74
2022/04/18 15:55:03;;;;;;;2.08;1.30;;;;;;;;;;5042710;28;20120;-73
2022/04/18 15:57:29;;;;;;;2.33;1.40;;;;;;;;;;5047129;28;20047;-74
2022/04/18 15:59:55;;;;;;;1.88;1.30;;;;;;;;;;5042175;28;20025;-65
2022/04/18 16:02:21;;;;;;;2.97;1.40;;;;;;;;;;5045008;28;20051;-66
2022/04/18 16:04:47;;;;;;;5.00;1.33;;;;;;;;;;5046524;28;20040;-66
2022/04/18 16:07:13;;;;;;;3.45;1.35;;;;;;;;;;5045389;28;20068;-67
2022/04/18 16:09:40;;;;;;;3.50;1.50;;;;;;;;;;5044204;28;20290;-66
2022/04/18 16:12:06;;;;;;;2.03;1.75;;;;;;;;;;5044286;28;20030;-66
2022/04/18 16:14:32;;;;;;;2.38;1.27;;;;;;;;;;5025458;28;20025;-67
2022/04/18 16:17:00;;;;;;;1.75;1.23;;;;;;;;;;5043770;28;20099;-66
2022/04/18 16:19:26;;;;;;;2.03;1.30;;;;;;;;;;5040854;28;20025;-66
2022/04/18 16:21:52;;;;;;;3.10;1.95;;;;;;;;;;5049763;28;20021;-65
2022/04/18 16:24:18;;;;;;;2.63;1.65;;;;;;;;;;5050757;28;20044;-66
2022/04/18 16:26:44;;;;;;;2.78;1.33;;;;;;;;;;5046578;28;20065;-66
2022/04/18 16:31:55;;;;;;;2.65;1.27;;;;;;;;;;5050512;28;20044;-65
2022/04/18 16:34:22;;;;;;;1.23;1.10;;;;;;;;;;5050376;28;20040;-65
2022/04/18 16:36:49;;;;;;;2.67;1.50;;;;;;;;;;5040483;28;20017;-65
2022/04/18 16:39:15;;;;;;;2.83;1.50;;;;;;;;;;5047021;28;20494;-67
2022/04/18 16:47:11;;;;;;;1.63;1.10;;;;;;;;;;5044047;28;20140;-66
2022/04/18 16:49:37;;;;;;;2.65;1.45;;;;;;;;;;5049894;28;20021;-65
2022/04/18 16:52:04;;;;;;;3.58;1.58;;;;;;;;;;5048817;28;20017;-66
2022/04/18 16:54:30;;;;;;;3.55;1.30;;;;;;;;;;5044304;28;20113;-66
2022/04/18 16:56:56;;;;;;;2.15;1.20;;;;;;;;;;5049069;28;20057;-67
2022/04/18 16:59:22;;;;;;;2.47;1.23;;;;;;;;;;5046865;28;20112;-65
2022/04/18 17:01:48;;;;;;;3.97;1.40;;;;;;;;;;5043407;28;20036;-66
2022/04/18 17:04:14;;;;;;;2.35;1.58;;;;;;;;;;5050902;28;20158;-66
2022/04/18 17:06:40;;;;;;;1.20;1.00;;;;;;;;;;5045879;28;20116;-65
2022/04/18 17:09:07;;;;;;;3.88;1.48;;;;;;;;;;5048431;28;20474;-66
2022/04/18 17:11:33;;;;;;;2.00;1.40;;;;;;;;;;5051627;28;20470;-66
2022/04/18 17:13:59;;;;;;;1.90;1.30;;;;;;;;;;5051088;28;20068;-66
2022/04/18 17:16:26;;;;;;;2.55;1.58;;;;;;;;;;5047720;28;20025;-66
2022/04/18 17:18:52;;;;;;;3.70;1.20;;;;;;;;;;5043539;28;20025;-66
2022/04/18 17:21:19;;;;;;;2.67;1.48;;;;;;;;;;5050784;28;20017;-66
2022/04/18 17:23:45;;;;;;;3.15;1.70;;;;;;;;;;5046940;28;20092;-66
2022/04/18 17:26:11;;;;;;;1.92;1.50;;;;;;;;;;5051712;28;20166;-66
2022/04/18 17:28:37;;;;;;;2.15;1.38;;;;;;;;;;5049310;28;20017;-66
2022/04/18 17:34:09;;;;;;;7.75;1.38;;;;;;;;;;5054105;28;20056;-66
2022/04/18 17:36:36;;;;;;;5.32;1.60;;;;;;;;;;5041496;28;20031;-65
2022/04/18 17:39:02;;;;;;;2.20;1.23;;;;;;;;;;5048941;28;20021;-65
2022/04/18 17:41:28;;;;;;;2.53;1.40;;;;;;;;;;5052490;28;20490;-67
2022/04/18 17:43:54;;;;;;;2.83;1.40;;;;;;;;;;5053403;28;20017;-66
2022/04/18 17:46:22;;;;;;;2.38;1.30;;;;;;;;;;5047208;28;20040;-65
2022/04/18 17:48:48;;;;;;;3.70;1.63;;;;;;;;;;5048021;28;20035;-65
2022/04/18 17:51:15;;;;;;;2.63;1.40;;;;;;;;;;5051955;28;20021;-66
2022/04/18 17:56:27;;;;;;;1.30;1.10;;;;;;;;;;5047773;28;20107;-66
2022/04/18 17:58:54;;;;;;;3.13;1.45;;;;;;;;;;5042778;28;20040;-66
2022/04/18 18:01:22;;;;;;;4.70;1.50;;;;;;;;;;5045427;28;20036;-66
2022/04/18 18:03:48;;;;;;;4.70;1.17;;;;;;;;;;5051039;28;20052;-66
2022/04/18 18:06:14;;;;;;;3.30;1.00;;;;;;;;;;5050755;28;20467;-66
2022/04/18 18:08:40;;;;;;;3.53;1.23;;;;;;;;;;5044184;28;20446;-66
2022/04/18 18:11:06;;;;;;;3.75;1.30;;;;;;;;;;5050599;28;20037;-66
2022/04/18 18:13:32;;;;;;;3.30;1.33;;;;;;;;;;5049502;28;20055;-66
2022/04/18 18:15:58;;;;;;;2.35;1.20;;;;;;;;;;5049919;28;20041;-66
2022/04/18 18:18:25;;;;;;;5.10;1.40;;;;;;;;;;5044809;28;20033;-66
2022/04/18 18:20:51;;;;;;;3.55;1.60;;;;;;;;;;5047008;28;20063;-66
2022/04/18 18:23:17;;;;;;;3.88;1.85;;;;;;;;;;5048768;28;20057;-66
2022/04/18 18:25:43;;;;;;;3.33;1.90;;;;;;;;;;5047818;28;20025;-66
2022/04/18 18:28:10;;;;;;;5.53;2.22;;;;;;;;;;5048067;28;20106;-66
2022/04/18 18:30:43;;;;;;;2.58;1.60;;;;;;;;;;5043020;28;20038;-67
2022/04/18 18:33:14;;;;;;;1.63;1.27;;;;;;;;;;5046286;28;20120;-66
2022/04/18 18:35:41;;;;;;;4.53;2.53;;;;;;;;;;5048441;28;20020;-67
2022/04/18 18:38:08;;;;;;;3.15;1.40;;;;;;;;;;5044171;28;20116;-67
2022/04/18 18:40:35;;;;;;;5.03;1.77;;;;;;;;;;5050243;28;20075;-67
2022/04/18 18:43:01;;;;;;;4.68;1.42;;;;;;;;;;5023868;28;20048;-65
2022/04/18 18:45:30;;;;;;;2.15;1.30;;;;;;;;;;5043848;28;20025;-66
2022/04/18 18:47:56;;;;;;;2.78;1.65;;;;;;;;;;5040754;28;20044;-65
2022/04/18 18:53:07;;;;;;;1.80;1.27;;;;;;;;;;5043430;28;20052;-65
2022/04/18 18:55:33;;;;;;;1.65;1.55;;;;;;;;;;5041371;28;20017;-66
2022/04/18 18:58:03;;;;;;;2.28;1.10;;;;;;;;;;5039824;28;20029;-67
2022/04/18 19:00:30;;;;;;;2.97;1.50;;;;;;;;;;5044958;28;20023;-66
2022/04/18 19:02:56;;;;;;;2.15;1.50;;;;;;;;;;5037756;28;20043;-67
2022/04/18 19:05:22;;;;;;;2.85;1.58;;;;;;;;;;5038185;28;20020;-66
2022/04/18 19:07:48;;;;;;;2.28;1.50;;;;;;;;;;5040408;28;20024;-65
2022/04/18 19:10:14;;;;;;;5.78;1.92;;;;;;;;;;5048113;28;20356;-66
2022/04/18 19:12:40;;;;;;;2.05;1.40;;;;;;;;;;5048350;28;20025;-67
2022/04/18 19:15:07;;;;;;;5.93;1.50;;;;;;;;;;5046488;28;20093;-66
2022/04/18 19:28:31;;;;;;;3.30;1.98;;;;;;;;;;5047057;28;20068;-66
2022/04/18 19:30:58;;;;;;;12.95;2.78;;;;;;;;;;5047515;28;20454;-67
2022/04/18 19:33:24;;;;;;;4.57;2.38;;;;;;;;;;5046677;28;20040;-65
2022/04/18 19:35:50;;;;;;;4.85;2.13;;;;;;;;;;5048212;28;20462;-65
2022/04/18 19:38:16;;;;;;;6.20;3.03;;;;;;;;;;5039016;28;20036;-66
2022/04/18 19:40:42;;;;;;;6.28;2.40;;;;;;;;;;5048056;28;20023;-66
2022/04/18 19:43:08;;;;;;;2.65;1.88;;;;;;;;;;5056771;28;20024;-66
2022/04/18 19:45:34;;;;;;;3.63;2.08;;;;;;;;;;5038585;28;20083;-66
2022/04/18 19:48:00;;;;;;;14.48;6.78;;;;;;;;;;5046170;28;20438;-66
2022/04/18 19:50:26;;;;;;;11.45;4.15;;;;;;;;;;5045116;28;20025;-66
2022/04/18 19:52:52;;;;;;;9.77;4.30;;;;;;;;;;5046231;28;20029;-66
2022/04/18 19:55:18;;;;;;;5.43;2.55;;;;;;;;;;5046875;28;20028;-66
2022/04/18 19:57:44;;;;;;;3.72;2.13;;;;;;;;;;5047547;28;20498;-65
2022/04/18 20:00:11;;;;;;;5.38;2.42;;;;;;;;;;5047240;28;20061;-66
2022/04/18 20:02:37;;;;;;;4.55;2.42;;;;;;;;;;5043401;28;20031;-66
2022/04/18 20:05:06;;;;;;;2.92;1.70;;;;;;;;;;5037736;28;20033;-66
2022/04/18 20:07:32;;;;;;;4.50;2.65;;;;;;;;;;5047830;28;20021;-66
2022/04/18 20:09:58;;;;;;;6.45;2.50;;;;;;;;;;5055210;28;20533;-66
2022/04/18 20:12:24;;;;;;;10.10;4.20;;;;;;;;;;5047561;28;20027;-65
2022/04/18 20:14:50;;;;;;;3.78;2.53;;;;;;;;;;5053103;28;20036;-65
2022/04/18 20:17:16;;;;;;;4.18;2.15;;;;;;;;;;5046498;28;20087;-66
2022/04/18 20:19:42;;;;;;;3.53;2.08;;;;;;;;;;5045749;28;20009;-66
2022/04/18 20:22:08;;;;;;;4.78;1.88;;;;;;;;;;5046712;28;20029;-68
2022/04/18 20:24:34;;;;;;;6.05;2.63;;;;;;;;;;5037796;28;20021;-67
2022/04/18 20:27:00;;;;;;;4.22;1.85;;;;;;;;;;5046627;28;20048;-66
2022/04/18 20:29:26;;;;;;;5.03;2.40;;;;;;;;;;5044142;28;20438;-66
2022/04/18 20:31:53;;;;;;;6.43;3.58;;;;;;;;;;5044398;28;20033;-65
2022/04/18 20:34:19;;;;;;;6.70;3.75;;;;;;;;;;5046771;28;20033;-66
2022/04/18 20:36:46;;;;;;;10.15;4.40;;;;;;;;;;5047688;28;20017;-66
2022/04/18 20:39:12;;;;;;;8.52;3.20;;;;;;;;;;5047547;28;20036;-66
2022/04/18 20:41:39;;;;;;;5.00;2.90;;;;;;;;;;5047827;28;20060;-65
2022/04/18 20:44:05;;;;;;;12.82;5.00;;;;;;;;;;5046913;28;20032;-66
2022/04/18 20:46:31;;;;;;;19.55;8.52;;;;;;;;;;5048780;28;20449;-65
2022/04/18 20:48:57;;;;;;;12.43;5.35;;;;;;;;;;5044630;28;20505;-66
2022/04/18 20:51:23;;;;;;;7.93;3.58;;;;;;;;;;5040023;28;20078;-66
2022/04/18 20:59:18;;;;;;;5.32;2.78;;;;;;;;;;5051371;28;20047;-65
2022/04/18 21:01:44;;;;;;;6.40;2.30;;;;;;;;;;5051384;28;20135;-65
2022/04/18 21:04:11;;;;;;;3.92;2.25;;;;;;;;;;5050465;28;20037;-67